Time;durP1;ratioP1;P1;durP2;ratioP2;P2;SDS_P1;SDS_P2;PMS_P1;PMS_P2;Temp;Humidity;BMP_temperature;BMP_pressure;BME280_temperature;BME280_humidity;BME280_pressure;Samples;Min_cycle;Max_cycle;Signal;HPM_P1;HPM_P2
2022/06/05 00:00:06;;;;;;;9.90;5.90;;;;;;;19.96;53.25;101605.94;5055562;28;20028;-61
2022/06/05 00:02:53;;;;;;;16.63;6.03;;;;;;;19.93;53.03;101603.28;5055530;28;20117;-62
2022/06/05 00:05:44;;;;;;;11.52;6.13;;;;;;;19.93;53.02;101609.53;5055661;28;20112;-61
2022/06/05 00:08:29;;;;;;;14.73;6.00;;;;;;;19.84;53.40;101606.13;5055541;28;20036;-62
2022/06/05 00:10:57;;;;;;;11.18;6.05;;;;;;;19.77;53.68;101600.84;5055398;28;20028;-62
2022/06/05 00:13:28;;;;;;;12.35;5.93;;;;;;;19.75;53.69;101597.31;5055476;28;20115;-62
2022/06/05 00:15:54;;;;;;;12.20;5.80;;;;;;;19.73;53.70;101587.50;5055229;28;20029;-62
2022/06/05 00:18:19;;;;;;;8.85;5.80;;;;;;;19.67;53.76;101576.88;5055320;28;20025;-62
2022/06/05 00:20:45;;;;;;;8.57;5.80;;;;;;;19.67;53.86;101579.56;5055248;28;20029;-61
2022/06/05 00:23:11;;;;;;;8.05;5.88;;;;;;;19.73;53.78;101582.13;5055172;28;20083;-62
2022/06/05 00:25:45;;;;;;;9.70;6.25;;;;;;;19.69;53.98;101586.66;5055145;28;20021;-62
2022/06/05 00:28:37;;;;;;;9.05;5.70;;;;;;;19.69;54.04;101585.78;5053817;28;20493;-63
2022/06/05 00:31:08;;;;;;;9.70;6.10;;;;;;;19.61;54.07;101591.25;5055023;28;20513;-62
2022/06/05 00:33:38;;;;;;;8.77;6.20;;;;;;;19.50;54.53;101582.44;5054931;28;20025;-62
2022/06/05 00:36:19;;;;;;;8.50;6.30;;;;;;;19.46;54.46;101581.59;5054947;28;20131;-62
2022/06/05 00:39:09;;;;;;;11.60;6.13;;;;;;;19.46;54.35;101565.53;5054912;28;20051;-62
2022/06/05 00:42:04;;;;;;;11.07;6.05;;;;;;;19.42;54.92;101562.91;5055068;28;20032;-62
2022/06/05 00:45:01;;;;;;;28.88;20.95;;;;;;;19.40;54.36;101562.03;5054734;28;20040;-62
2022/06/05 00:47:30;;;;;;;9.43;6.00;;;;;;;19.31;55.25;101556.81;4973809;28;20043;-62
2022/06/05 00:50:10;;;;;;;8.40;6.13;;;;;;;19.28;54.82;101560.44;4974004;28;20070;-62
2022/06/05 00:52:40;;;;;;;10.05;6.30;;;;;;;19.21;55.19;101546.22;4973911;28;20047;-62
2022/06/05 00:55:07;;;;;;;7.85;6.15;;;;;;;19.24;55.36;101546.19;4973882;28;20034;-62
2022/06/05 00:57:36;;;;;;;10.02;5.90;;;;;;;19.24;55.00;101551.53;4974080;28;20101;-62
2022/06/05 01:00:11;;;;;;;10.60;6.22;;;;;;;19.22;55.17;101544.41;4973920;28;20122;-62
2022/06/05 01:02:37;;;;;;;8.43;5.80;;;;;;;19.15;55.85;101550.78;4973799;28;20034;-62
2022/06/05 01:05:03;;;;;;;9.32;5.57;;;;;;;19.11;55.76;101554.41;4973541;28;20050;-62
2022/06/05 01:07:28;;;;;;;8.10;6.07;;;;;;;19.06;55.35;101556.25;4973616;28;20029;-62
2022/06/05 01:09:53;;;;;;;7.90;5.88;;;;;;;19.02;56.08;101548.28;4973556;28;20483;-61
2022/06/05 01:12:41;;;;;;;7.95;5.80;;;;;;;19.00;55.85;101550.06;4973395;28;20497;-62
2022/06/05 01:15:09;;;;;;;8.02;6.10;;;;;;;19.01;55.59;101538.47;4973756;28;20424;-61
2022/06/05 01:17:43;;;;;;;7.97;5.95;;;;;;;19.05;55.37;101541.97;4973302;28;20038;-62
2022/06/05 01:20:16;;;;;;;6.85;5.90;;;;;;;19.01;55.42;101546.50;4973280;28;20022;-62
2022/06/05 01:23:10;;;;;;;8.23;5.82;;;;;;;18.98;55.75;101542.97;4977318;28;20101;-62
2022/06/05 01:26:02;;;;;;;9.70;5.80;;;;;;;19.00;55.35;101550.06;5053988;28;20462;-62
2022/06/05 01:28:32;;;;;;;8.40;6.10;;;;;;;18.91;55.99;101534.13;5053828;28;20053;-62
2022/06/05 01:31:10;;;;;;;9.25;6.00;;;;;;;18.94;55.95;101547.47;5054046;28;20064;-61
2022/06/05 01:33:43;;;;;;;9.88;6.35;;;;;;;18.92;55.72;101551.94;5053612;28;20036;-62
2022/06/05 01:36:25;;;;;;;10.05;6.30;;;;;;;18.93;55.75;101571.63;5053982;28;20064;-62
2022/06/05 01:38:58;;;;;;;10.35;6.50;;;;;;;18.86;56.34;101586.84;5053524;28;20421;-62
2022/06/05 01:41:34;;;;;;;10.85;5.80;;;;;;;18.91;56.12;101576.09;5053682;28;20021;-62
2022/06/05 01:44:05;;;;;;;9.77;6.18;;;;;;;18.97;56.12;101587.63;5053693;28;20025;-62
2022/06/05 01:46:34;;;;;;;13.93;5.90;;;;;;;18.98;55.98;101620.66;5053565;28;20028;-62
2022/06/05 01:49:21;;;;;;;10.70;5.95;;;;;;;18.99;55.90;101617.94;5053944;28;20029;-62
2022/06/05 01:51:54;;;;;;;9.77;6.22;;;;;;;18.99;56.43;101566.16;5053354;28;20475;-62
2022/06/05 01:54:28;;;;;;;7.20;5.97;;;;;;;18.98;56.60;101542.97;5053535;28;20033;-62
2022/06/05 01:56:57;;;;;;;9.65;5.85;;;;;;;18.97;55.94;101557.25;5053342;28;20028;-62
2022/06/05 01:59:34;;;;;;;9.18;5.93;;;;;;;18.97;56.54;101576.91;5053351;28;20517;-62
2022/06/05 02:02:02;;;;;;;10.73;6.13;;;;;;;19.02;56.50;101552.75;5053411;28;20078;-62
2022/06/05 02:04:42;;;;;;;11.38;5.60;;;;;;;19.07;56.05;101550.00;5053339;28;20033;-62
2022/06/05 02:07:16;;;;;;;7.95;5.75;;;;;;;19.01;56.10;101529.53;5053169;28;20574;-62
2022/06/05 02:10:07;;;;;;;8.13;5.80;;;;;;;19.00;56.54;101522.41;5053224;28;20382;-62
2022/06/05 02:12:34;;;;;;;9.10;6.07;;;;;;;18.91;56.46;101511.81;5053009;28;20359;-62
2022/06/05 02:15:00;;;;;;;8.60;5.88;;;;;;;18.93;56.04;101512.69;5053263;28;20466;-62
2022/06/05 02:17:26;;;;;;;9.88;5.72;;;;;;;19.02;56.10;101507.22;5053154;28;20455;-62
2022/06/05 02:19:52;;;;;;;8.82;5.95;;;;;;;18.97;56.09;101496.56;5053034;28;20049;-62
2022/06/05 02:22:21;;;;;;;10.75;6.07;;;;;;;18.91;56.05;101477.00;5053294;28;20119;-62
2022/06/05 02:24:47;;;;;;;10.45;5.75;;;;;;;18.86;56.29;101470.81;5053238;28;20029;-62
2022/06/05 02:27:12;;;;;;;9.15;5.75;;;;;;;18.82;56.33;101477.13;5053061;28;20156;-63
2022/06/05 02:29:38;;;;;;;8.55;6.30;;;;;;;18.79;56.57;101471.78;5052810;28;20044;-62
2022/06/05 02:32:41;;;;;;;6.90;6.03;;;;;;;18.87;55.63;101464.56;5053043;28;20448;-62
2022/06/05 02:35:18;;;;;;;8.30;6.32;;;;;;;18.77;56.92;101467.34;5053068;28;20028;-62
2022/06/05 02:37:58;;;;;;;8.65;6.15;;;;;;;18.76;56.58;101464.72;5053112;28;20035;-62
2022/06/05 02:40:40;;;;;;;8.82;6.38;;;;;;;18.76;56.59;101456.69;5052991;28;20039;-62
2022/06/05 02:43:42;;;;;;;9.43;6.30;;;;;;;18.74;56.70;101453.13;5052775;28;20076;-62
2022/06/05 02:46:14;;;;;;;;;;;;;;;18.82;56.38;101453.03;5053325;28;20108;-62
2022/06/05 02:48:47;;;;;;;9.35;6.30;;;;;;;18.69;57.25;101437.13;5052997;28;20435;-62
2022/06/05 02:51:20;;;;;;;9.77;6.10;;;;;;;18.65;56.95;101437.16;5054900;28;20040;-62
2022/06/05 02:53:51;;;;;;;7.70;6.03;;;;;;;18.67;57.08;101429.97;5056741;28;20025;-62
2022/06/05 02:56:18;;;;;;;10.95;6.57;;;;;;;18.59;57.09;101426.53;5056955;28;20025;-62
2022/06/05 02:58:46;;;;;;;10.13;6.63;;;;;;;18.56;57.50;101414.06;5056808;28;20035;-62
2022/06/05 03:03:56;;;;;;;8.82;6.50;;;;;;;18.42;57.39;101406.22;5056911;28;20040;-62
2022/06/05 03:06:23;;;;;;;12.15;6.72;;;;;;;18.36;57.95;101403.59;5056860;28;20554;-62
2022/06/05 03:08:49;;;;;;;9.13;6.13;;;;;;;18.36;58.18;101400.03;5056624;28;20079;-62
2022/06/05 03:11:14;;;;;;;9.70;6.60;;;;;;;18.27;57.90;101396.56;5056566;28;20025;-62
2022/06/05 03:13:40;;;;;;;10.10;6.72;;;;;;;18.25;58.29;101395.72;5056441;28;20086;-62
2022/06/05 03:16:07;;;;;;;10.57;6.75;;;;;;;18.20;57.70;101392.22;5056436;28;20104;-62
2022/06/05 03:18:33;;;;;;;10.85;6.60;;;;;;;18.21;57.78;101396.66;5056329;28;20147;-62
2022/06/05 03:20:59;;;;;;;8.85;6.60;;;;;;;18.18;57.69;101401.16;5055801;28;20033;-62
2022/06/05 03:23:25;;;;;;;11.82;7.07;;;;;;;18.16;57.64;101392.28;5055780;28;20028;-62
2022/06/05 03:25:51;;;;;;;11.95;6.70;;;;;;;18.13;57.53;101386.97;5055725;28;20072;-61
2022/06/05 03:28:16;;;;;;;8.60;6.50;;;;;;;18.08;58.15;101379.00;5055346;28;20021;-62
2022/06/05 03:30:42;;;;;;;9.10;6.95;;;;;;;18.00;57.96;101367.50;5055765;28;20397;-62
2022/06/05 03:33:09;;;;;;;10.57;6.40;;;;;;;17.98;57.90;101362.16;5055319;28;20025;-61
2022/06/05 03:35:39;;;;;;;8.30;6.65;;;;;;;17.89;58.42;101354.22;5055428;28;20025;-62
2022/06/05 03:38:05;;;;;;;9.82;6.32;;;;;;;17.89;58.09;101354.22;5055755;28;20116;-61
2022/06/05 03:40:31;;;;;;;11.73;6.63;;;;;;;17.86;58.09;101350.69;5055391;28;20052;-61
2022/06/05 03:42:57;;;;;;;10.05;6.80;;;;;;;17.85;58.46;101363.19;5055291;28;20032;-61
2022/06/05 03:45:24;;;;;;;9.55;6.50;;;;;;;17.82;58.32;101360.56;5055479;28;20033;-61
2022/06/05 03:47:50;;;;;;;11.05;6.75;;;;;;;17.84;57.79;101357.88;5055287;28;20032;-61
2022/06/05 03:50:17;;;;;;;10.23;6.57;;;;;;;17.85;58.09;101363.19;5055062;28;20036;-62
2022/06/05 03:52:43;;;;;;;10.55;6.45;;;;;;;17.87;57.71;101368.53;5055438;28;20037;-61
2022/06/05 03:55:12;;;;;;;10.45;6.53;;;;;;;17.84;58.23;101374.78;5055475;28;20025;-61
2022/06/05 03:57:38;;;;;;;10.95;6.93;;;;;;;17.85;58.12;101378.34;5055324;28;20072;-61
2022/06/05 04:00:10;;;;;;;8.77;6.20;;;;;;;17.88;58.22;101381.88;5054871;28;20044;-61
2022/06/05 04:02:35;;;;;;;12.70;6.85;;;;;;;17.86;57.89;101382.78;5054930;28;20533;-62
2022/06/05 04:05:04;;;;;;;10.77;6.90;;;;;;;17.88;58.03;101389.03;5054705;28;20127;-62
2022/06/05 04:07:29;;;;;;;7.90;6.38;;;;;;;17.88;58.77;101389.91;5054932;28;20344;-61
2022/06/05 04:09:55;;;;;;;10.98;7.00;;;;;;;17.85;58.78;101389.91;5055016;28;20031;-61
2022/06/05 04:12:20;;;;;;;12.20;6.95;;;;;;;17.85;58.31;101384.56;5054787;28;20032;-61
2022/06/05 04:14:46;;;;;;;8.93;6.68;;;;;;;17.91;58.20;101384.53;5054767;28;20025;-61
2022/06/05 04:17:11;;;;;;;10.80;6.97;;;;;;;17.88;58.56;101379.22;5054845;28;20057;-62
2022/06/05 04:19:37;;;;;;;13.25;7.07;;;;;;;17.89;58.91;101372.94;5054566;28;20025;-62
2022/06/05 04:22:03;;;;;;;10.13;6.75;;;;;;;17.83;59.67;101370.34;5054559;28;20044;-61
2022/06/05 04:24:28;;;;;;;8.30;5.95;;;;;;;17.84;59.62;101366.78;5054679;28;20021;-61
2022/06/05 04:26:54;;;;;;;11.15;6.57;;;;;;;17.78;59.89;101364.19;5054525;28;20028;-61
2022/06/05 04:29:19;;;;;;;10.35;6.93;;;;;;;17.78;60.27;101361.50;5054590;28;20090;-61
2022/06/05 04:31:46;;;;;;;11.50;6.97;;;;;;;17.79;59.88;101365.06;5054459;28;20028;-61
2022/06/05 04:34:15;;;;;;;10.88;7.00;;;;;;;17.75;59.25;101362.41;5054442;28;20017;-62
2022/06/05 04:36:41;;;;;;;11.48;6.97;;;;;;;17.68;59.61;101359.78;5054296;28;20378;-61
2022/06/05 04:39:07;;;;;;;10.13;7.05;;;;;;;17.70;58.94;101366.00;5054516;28;20045;-61
2022/06/05 04:41:32;;;;;;;13.27;6.97;;;;;;;17.69;59.46;101365.13;5054411;28;20438;-61
2022/06/05 04:43:58;;;;;;;9.13;6.72;;;;;;;17.74;59.19;101366.00;5054140;28;20032;-61
2022/06/05 04:46:27;;;;;;;12.00;6.90;;;;;;;17.78;59.76;101364.19;5054242;28;20087;-61
2022/06/05 04:48:53;;;;;;;10.40;7.32;;;;;;;17.76;58.69;101361.50;5054092;28;20047;-62
2022/06/05 04:51:19;;;;;;;10.80;6.70;;;;;;;17.77;59.00;101355.28;5054223;28;20033;-62
2022/06/05 04:53:46;;;;;;;9.80;6.90;;;;;;;17.76;58.53;101360.63;5054051;28;20029;-61
2022/06/05 04:56:18;;;;;;;11.40;7.60;;;;;;;17.73;58.95;101357.97;5054293;28;20029;-61
2022/06/05 04:58:44;;;;;;;;;;;;;;;17.83;58.52;101367.69;5037113;28;20033;-61
2022/06/05 05:01:12;;;;;;;8.48;6.78;;;;;;;17.68;58.98;101362.44;5053947;28;19912;-61
2022/06/05 05:03:38;;;;;;;9.73;7.20;;;;;;;17.63;59.37;101362.50;5054023;28;20445;-62
2022/06/05 05:06:03;;;;;;;10.43;7.53;;;;;;;17.64;59.44;101363.38;5053819;28;20052;-62
2022/06/05 05:08:29;;;;;;;10.65;7.25;;;;;;;17.63;59.40;101359.81;5053845;28;20111;-61
2022/06/05 05:10:54;;;;;;;12.52;7.35;;;;;;;17.61;59.62;101355.41;5053974;28;20021;-61
2022/06/05 05:13:19;;;;;;;14.77;7.35;;;;;;;17.49;60.16;101365.31;5053100;28;20490;-61
2022/06/05 05:15:51;;;;;;;11.23;8.00;;;;;;;17.41;60.51;101372.50;5053637;28;20106;-61
2022/06/05 05:18:16;;;;;;;13.23;7.20;;;;;;;17.46;60.92;101377.81;5054662;28;20025;-62
2022/06/05 05:20:42;;;;;;;10.70;7.15;;;;;;;17.45;60.66;101384.94;5054056;28;20029;-61
2022/06/05 05:23:07;;;;;;;10.60;7.28;;;;;;;17.48;60.79;101382.25;5053902;28;20029;-61
2022/06/05 05:25:33;;;;;;;12.32;7.55;;;;;;;17.53;60.37;101382.22;5053492;28;20070;-61
2022/06/05 05:27:58;;;;;;;11.80;7.00;;;;;;;17.62;60.55;101378.56;5053411;28;20020;-61
2022/06/05 05:30:24;;;;;;;10.15;7.28;;;;;;;17.57;60.48;101383.06;5053018;28;20513;-61
2022/06/05 05:32:49;;;;;;;11.13;7.40;;;;;;;17.64;60.53;101379.41;5053542;28;20021;-62
2022/06/05 05:35:15;;;;;;;11.85;7.18;;;;;;;17.68;59.92;101381.16;5053117;28;20161;-62
2022/06/05 05:37:40;;;;;;;10.27;7.28;;;;;;;17.71;60.00;101376.66;5053261;28;20523;-61
2022/06/05 05:42:50;;;;;;;11.70;7.22;;;;;;;17.71;60.34;101379.34;5053460;28;20043;-62
2022/06/05 05:45:16;;;;;;;10.35;7.28;;;;;;;17.75;60.13;101374.91;5035476;28;20111;-61
2022/06/05 05:47:42;;;;;;;11.52;7.20;;;;;;;17.79;60.51;101368.63;5052801;28;20029;-61
2022/06/05 05:50:11;;;;;;;10.73;7.15;;;;;;;17.80;60.18;101375.72;5052979;28;20028;-61
2022/06/05 05:52:37;;;;;;;11.82;7.60;;;;;;;17.84;60.08;101379.25;5052950;28;20029;-62
2022/06/05 05:55:05;;;;;;;11.32;7.22;;;;;;;17.83;60.37;101362.34;5052919;28;20166;-61
2022/06/05 05:57:30;;;;;;;11.20;7.28;;;;;;;17.90;60.01;101371.16;5052812;28;20474;-62
2022/06/05 05:59:56;;;;;;;11.07;7.68;;;;;;;17.87;60.18;101363.19;5052897;28;20024;-61
2022/06/05 06:02:23;;;;;;;9.73;7.28;;;;;;;17.87;60.42;101361.41;5053329;28;20055;-62
2022/06/05 06:04:50;;;;;;;11.48;7.30;;;;;;;17.83;60.90;101351.63;5052930;28;20102;-61
2022/06/05 06:07:17;;;;;;;11.32;7.68;;;;;;;17.84;60.46;101342.72;5052641;28;20028;-61
2022/06/05 06:09:43;;;;;;;14.25;7.78;;;;;;;17.91;60.56;101341.75;5052684;28;20025;-61
2022/06/05 06:12:10;;;;;;;9.57;7.53;;;;;;;17.97;60.58;101344.34;5052719;28;20032;-61
2022/06/05 06:14:36;;;;;;;12.90;7.63;;;;;;;17.93;60.27;101317.66;5052683;28;20029;-61
2022/06/05 06:17:02;;;;;;;10.13;7.55;;;;;;;18.08;60.39;101335.31;5052621;28;20025;-61
2022/06/05 06:19:27;;;;;;;13.57;6.88;;;;;;;18.13;60.12;101320.97;5052564;28;20036;-61
2022/06/05 06:21:53;;;;;;;16.92;7.40;;;;;;;18.19;60.28;101323.56;5052670;28;20021;-61
2022/06/05 06:24:18;;;;;;;12.18;7.78;;;;;;;18.30;60.03;101319.88;5052355;28;20025;-61
2022/06/05 06:26:43;;;;;;;11.02;8.00;;;;;;;18.33;59.73;101323.41;5051921;28;20052;-61
2022/06/05 06:29:09;;;;;;;13.10;7.78;;;;;;;18.35;59.77;101320.69;5052460;28;20040;-61
2022/06/05 06:31:38;;;;;;;10.60;7.20;;;;;;;18.40;59.40;101317.03;5052363;28;20390;-61
2022/06/05 06:34:04;;;;;;;11.32;7.70;;;;;;;18.48;59.61;101314.25;5052195;28;20374;-61
2022/06/05 06:36:30;;;;;;;10.18;7.40;;;;;;;18.51;58.95;101307.06;5052461;28;20115;-61
2022/06/05 06:38:55;;;;;;;13.98;7.97;;;;;;;18.54;59.35;101298.09;5052798;28;20052;-61
2022/06/05 06:41:21;;;;;;;11.18;7.43;;;;;;;18.59;59.48;101298.94;5052330;28;20065;-61
2022/06/05 06:43:48;;;;;;;11.85;7.57;;;;;;;18.66;59.59;101295.22;5052689;28;20036;-61
2022/06/05 06:46:15;;;;;;;9.07;7.25;;;;;;;18.76;59.28;101291.56;5052280;28;20036;-61
2022/06/05 06:48:41;;;;;;;11.00;7.65;;;;;;;18.87;58.93;101286.00;5052224;28;20029;-63
2022/06/05 06:51:08;;;;;;;9.32;7.20;;;;;;;18.95;58.91;101289.44;5052374;28;20029;-61
2022/06/05 06:53:35;;;;;;;14.15;7.90;;;;;;;19.04;58.77;101280.38;5052323;28;20083;-61
2022/06/05 06:56:07;;;;;;;11.88;8.00;;;;;;;19.12;58.55;101283.81;5052140;28;20094;-61
2022/06/05 06:58:33;;;;;;;12.02;8.38;;;;;;;19.20;58.29;101260.44;5052289;28;20504;-61
2022/06/05 07:01:04;;;;;;;10.82;8.38;;;;;;;19.24;58.10;101280.91;5052156;28;20021;-62
2022/06/05 07:03:30;;;;;;;12.15;8.48;;;;;;;19.39;57.33;101301.19;5051920;28;20025;-61
2022/06/05 07:05:56;;;;;;;10.20;8.20;;;;;;;19.47;58.11;101284.97;5034325;28;20123;-61
2022/06/05 07:08:22;;;;;;;9.88;8.05;;;;;;;19.55;57.79;101274.97;5034420;28;20025;-61
2022/06/05 07:10:47;;;;;;;10.90;8.27;;;;;;;19.67;56.79;101273.88;5052026;28;20087;-61
2022/06/05 07:13:12;;;;;;;15.23;8.43;;;;;;;19.68;57.35;101265.81;5051975;28;20029;-61
2022/06/05 07:15:38;;;;;;;9.43;8.38;;;;;;;19.81;56.76;101254.84;5052071;28;20085;-61
2022/06/05 07:18:06;;;;;;;10.60;7.97;;;;;;;19.96;57.08;101260.78;5052034;28;20024;-62
2022/06/05 07:20:36;;;;;;;15.70;7.97;;;;;;;20.08;56.58;101251.53;5052054;28;20112;-61
2022/06/05 07:23:03;;;;;;;11.18;7.95;;;;;;;20.18;56.89;101250.44;5052225;28;20029;-61
2022/06/05 07:25:30;;;;;;;9.68;7.88;;;;;;;20.19;56.26;101252.19;5052066;28;20047;-61
2022/06/05 07:27:56;;;;;;;12.95;8.00;;;;;;;20.32;55.49;101247.44;5052141;28;20021;-61
2022/06/05 07:30:21;;;;;;;9.23;8.02;;;;;;;20.41;55.92;101247.22;5051540;28;20041;-61
2022/06/05 07:32:47;;;;;;;11.82;8.02;;;;;;;20.60;55.65;101246.81;5051590;28;20021;-62
2022/06/05 07:35:14;;;;;;;11.45;8.27;;;;;;;20.69;55.50;101244.81;5051794;28;20043;-61
2022/06/05 07:37:41;;;;;;;12.10;7.80;;;;;;;20.76;54.81;101240.13;5054448;28;20104;-62
2022/06/05 07:40:07;;;;;;;11.52;7.95;;;;;;;20.79;54.26;101229.31;5055351;28;20029;-62
2022/06/05 07:42:36;;;;;;;13.20;8.48;;;;;;;20.86;54.60;101236.31;5055323;28;20067;-61
2022/06/05 07:45:02;;;;;;;8.98;7.82;;;;;;;20.94;54.36;101228.94;5055238;28;20374;-62
2022/06/05 07:47:27;;;;;;;14.60;7.80;;;;;;;21.05;54.26;101231.34;5055138;28;20035;-62
2022/06/05 07:49:53;;;;;;;10.70;8.18;;;;;;;21.14;54.52;101230.22;5055278;28;20033;-62
2022/06/05 07:55:02;;;;;;;9.68;8.25;;;;;;;21.16;54.48;101231.94;5055442;28;20394;-62
2022/06/05 07:57:28;;;;;;;12.18;7.75;;;;;;;21.26;54.41;101219.13;5055375;28;20024;-61
2022/06/05 07:59:53;;;;;;;9.27;8.02;;;;;;;21.32;53.94;101223.47;5055186;28;20025;-62
2022/06/05 08:02:22;;;;;;;9.98;7.78;;;;;;;21.40;54.14;101219.66;5055012;28;20032;-62
2022/06/05 08:04:50;;;;;;;11.40;7.70;;;;;;;21.47;54.27;101206.94;5055134;28;20464;-62
2022/06/05 08:07:19;;;;;;;9.68;8.23;;;;;;;21.66;53.44;101202.75;5054779;28;20386;-62
2022/06/05 08:09:45;;;;;;;11.50;8.02;;;;;;;21.90;53.18;101205.66;5055072;28;20051;-62
2022/06/05 08:12:12;;;;;;;10.93;8.10;;;;;;;22.07;53.49;101199.75;5054692;28;20362;-62
2022/06/05 08:14:39;;;;;;;9.68;7.97;;;;;;;22.30;52.96;101193.66;5054917;28;20029;-62
2022/06/05 08:17:07;;;;;;;10.32;7.97;;;;;;;22.57;52.43;101192.78;5054713;28;20162;-62
2022/06/05 08:19:33;;;;;;;9.55;7.72;;;;;;;22.75;51.14;101200.22;5054909;28;20029;-62
2022/06/05 08:21:59;;;;;;;10.00;7.40;;;;;;;22.87;50.62;101196.25;5054768;28;20031;-62
2022/06/05 08:24:24;;;;;;;10.15;7.68;;;;;;;22.98;50.50;101195.88;5054810;28;20116;-62
2022/06/05 08:26:51;;;;;;;10.43;8.30;;;;;;;23.09;50.55;101198.22;5054730;28;20106;-62
2022/06/05 08:29:17;;;;;;;8.57;7.63;;;;;;;23.15;50.16;101184.50;5054360;28;20048;-62
2022/06/05 08:31:43;;;;;;;11.48;8.00;;;;;;;23.12;50.37;101180.09;5054498;28;20437;-62
2022/06/05 08:34:09;;;;;;;10.45;7.63;;;;;;;23.19;51.17;101184.34;5054658;28;20474;-62
2022/06/05 08:36:35;;;;;;;9.40;7.85;;;;;;;23.26;50.04;101176.91;5054532;28;20025;-62
2022/06/05 08:42:09;;;;;;;9.95;7.63;;;;;;;23.22;50.24;101178.84;5054484;28;20060;-63
